TimeCST,TemperatureF,Dew PointF,Humidity,Sea Level PressureIn,VisibilityMPH,Wind Direction,Wind SpeedMPH,Gust SpeedMPH,PrecipitationIn,Events,Conditions,WindDirDegrees,DateUTC
12:53 AM,32.0,28.0,85,30.47,10.0,Calm,Calm,-,N/A,,Clear,0,2012-11-17 06:53:00
1:53 AM,30.9,28.0,89,30.48,8.0,Calm,Calm,-,N/A,,Clear,0,2012-11-17 07:53:00
2:53 AM,28.9,27.0,92,30.48,8.0,Calm,Calm,-,N/A,,Clear,0,2012-11-17 08:53:00
4:53 AM,28.9,25.0,85,30.49,6.0,Calm,Calm,-,N/A,,Clear,0,2012-11-17 10:53:00
5:53 AM,27.0,24.1,89,30.51,5.0,Calm,Calm,-,N/A,,Clear,0,2012-11-17 11:53:00
6:53 AM,27.0,25.0,92,30.51,10.0,SE,4.6,-,N/A,,Clear,130,2012-11-17 12:53:00
7:53 AM,30.9,28.0,89,30.51,10.0,Calm,Calm,-,N/A,,Clear,0,2012-11-17 13:53:00
8:53 AM,39.9,32.0,73,30.53,10.0,SSE,3.5,-,N/A,,Clear,160,2012-11-17 14:53:00
11:53 AM,54.0,34.0,47,30.48,10.0,SE,4.6,-,N/A,,Clear,140,2012-11-17 17:53:00
1:53 PM,55.9,30.9,39,30.44,10.0,East,4.6,-,N/A,,Clear,100,2012-11-17 19:53:00
2:53 PM,55.9,33.1,42,30.43,10.0,ESE,3.5,-,N/A,,Clear,120,2012-11-17 20:53:00
3:53 PM,54.0,32.0,43,30.43,10.0,ESE,3.5,-,N/A,,Clear,110,2012-11-17 21:53:00
4:53 PM,51.1,33.1,50,30.41,10.0,East,5.8,-,N/A,,Clear,100,2012-11-17 22:53:00
5:53 PM,43.0,33.1,68,30.42,10.0,ENE,3.5,-,N/A,,Clear,70,2012-11-17 23:53:00
6:53 PM,42.1,33.1,70,30.42,7.0,Calm,Calm,-,N/A,,Clear,0,2012-11-18 00:53:00
7:53 PM,37.9,33.1,83,30.43,10.0,Calm,Calm,-,N/A,,Clear,0,2012-11-18 01:53:00
8:53 PM,36.0,32.0,86,30.43,10.0,Calm,Calm,-,N/A,,Clear,0,2012-11-18 02:53:00
9:53 PM,34.0,30.9,89,30.44,7.0,Calm,Calm,-,N/A,,Clear,0,2012-11-18 03:53:00
10:53 PM,34.0,30.9,89,30.43,7.0,Calm,Calm,-,N/A,,Clear,0,2012-11-18 04:53:00
11:53 PM,30.9,28.9,92,30.43,6.0,Calm,Calm,-,N/A,,Clear,0,2012-11-18 05:53:00